Time;durP1;ratioP1;P1;durP2;ratioP2;P2;SDS_P1;SDS_P2;PMS_P1;PMS_P2;Temp;Humidity;BMP_temperature;BMP_pressure;BME280_temperature;BME280_humidity;BME280_pressure;Samples;Min_cycle;Max_cycle;Signal;HPM_P1;HPM_P2
2021/03/10 00:00:26;;;;;;;140.35;82.05;;;77.30;2227.20;;;;;;4960094;28;20027;-79
2021/03/10 00:02:52;;;;;;;123.72;72.38;;;77.50;2227.20;;;;;;4977342;28;20114;-77
2021/03/10 00:05:18;;;;;;;104.47;64.45;;;77.60;2227.20;;;;;;4965623;28;20031;-79
2021/03/10 00:07:45;;;;;;;103.78;61.80;;;77.60;2227.20;;;;;;4960016;28;20054;-80
2021/03/10 00:10:12;;;;;;;92.75;61.33;;;77.50;2227.20;;;;;;4966134;28;20031;-80
2021/03/10 00:12:38;;;;;;;111.60;75.05;;;77.50;2227.20;;;;;;4965950;28;20029;-80
2021/03/10 00:15:06;;;;;;;68.95;49.08;;;77.50;2227.20;;;;;;4964976;28;20023;-79
2021/03/10 00:17:32;;;;;;;58.72;38.03;;;77.60;2227.20;;;;;;4965687;28;20037;-80
2021/03/10 00:19:58;;;;;;;38.95;23.40;;;77.70;2227.20;;;;;;4965786;28;20023;-80
2021/03/10 00:22:25;;;;;;;43.20;24.33;;;77.70;2227.20;;;;;;4960609;28;20046;-79
2021/03/10 00:24:51;;;;;;;66.15;31.65;;;77.70;2227.20;;;;;;4964924;28;20458;-81
2021/03/10 00:27:23;;;;;;;39.65;23.52;;;77.70;2227.20;;;;;;4965165;28;20034;-79
2021/03/10 00:29:55;;;;;;;51.90;26.98;;;77.70;2227.20;;;;;;4966184;28;20034;-80
2021/03/10 00:32:22;;;;;;;31.80;21.27;;;77.70;2227.20;;;;;;4966883;28;20117;-80
2021/03/10 00:34:49;;;;;;;44.13;26.80;;;77.60;2227.20;;;;;;4967384;28;20027;-80
2021/03/10 00:37:18;;;;;;;56.58;38.35;;;77.50;2227.20;;;;;;4967140;28;20027;-80
2021/03/10 00:39:45;;;;;;;62.33;40.25;;;77.50;2227.20;;;;;;4967929;28;20054;-80
2021/03/10 00:42:11;;;;;;;64.65;40.95;;;77.40;2227.20;;;;;;4966639;28;20035;-79
2021/03/10 00:44:37;;;;;;;74.10;46.70;;;77.40;2227.20;;;;;;4966742;28;20034;-81
2021/03/10 00:47:04;;;;;;;93.65;57.40;;;77.40;2227.20;;;;;;4966556;28;20026;-79
2021/03/10 00:49:29;;;;;;;91.95;51.72;;;77.70;2227.20;;;;;;4965481;28;20061;-79
2021/03/10 00:51:55;;;;;;;72.18;46.45;;;77.40;2227.20;;;;;;4965734;28;20030;-79
2021/03/10 00:54:21;;;;;;;66.63;43.58;;;77.30;2227.20;;;;;;4967669;28;20062;-79
2021/03/10 00:56:47;;;;;;;85.82;51.28;;;77.30;2227.20;;;;;;4970621;28;20031;-79
2021/03/10 00:59:13;;;;;;;91.07;50.92;;;77.40;2227.20;;;;;;4970682;28;20101;-79
2021/03/10 01:01:39;;;;;;;122.10;71.68;;;77.40;2227.20;;;;;;4971630;28;20029;-79
2021/03/10 01:04:05;;;;;;;117.97;71.38;;;77.40;2227.20;;;;;;4971823;28;20062;-80
2021/03/10 01:06:31;;;;;;;102.25;60.35;;;77.50;2227.20;;;;;;4972536;28;20046;-80
2021/03/10 01:08:57;;;;;;;64.78;39.22;;;77.50;2227.20;;;;;;4973541;28;20034;-80
2021/03/10 01:11:23;;;;;;;56.35;37.22;;;77.40;2227.20;;;;;;4973571;28;20030;-80
2021/03/10 01:13:48;;;;;;;65.45;43.42;;;77.30;2227.20;;;;;;4973181;28;20037;-80
2021/03/10 01:16:15;;;;;;;52.10;33.22;;;77.30;2227.20;;;;;;4973041;28;20023;-80
2021/03/10 01:18:41;;;;;;;45.67;29.48;;;102.50;2227.20;;;;;;4971454;28;20050;-79
2021/03/10 01:21:08;;;;;;;49.85;31.25;;;77.50;2227.20;;;;;;4970159;28;20042;-81
2021/03/10 01:23:34;;;;;;;51.22;31.23;;;77.30;2227.20;;;;;;4959914;28;20035;-80
2021/03/10 01:26:00;;;;;;;49.50;30.85;;;77.40;2227.20;;;;;;4985377;28;20050;-80
2021/03/10 01:28:26;;;;;;;47.10;29.05;;;77.40;2227.20;;;;;;4971763;28;20121;-79
2021/03/10 01:30:51;;;;;;;68.35;36.05;;;77.40;2227.20;;;;;;4972391;28;20031;-80
2021/03/10 01:33:18;;;;;;;38.95;23.75;;;77.40;2227.20;;;;;;4972536;28;20496;-80
2021/03/10 01:35:44;;;;;;;34.53;21.50;;;77.40;2227.20;;;;;;4973580;28;20030;-80
2021/03/10 01:38:10;;;;;;;30.38;20.65;;;77.40;2227.20;;;;;;4973089;28;20146;-80
2021/03/10 01:40:36;;;;;;;36.20;23.38;;;77.30;2227.20;;;;;;4972647;28;20118;-81
2021/03/10 01:43:03;;;;;;;31.42;22.67;;;77.30;2227.20;;;;;;4973379;28;20026;-80
2021/03/10 01:45:29;;;;;;;42.30;26.73;;;77.30;2227.20;;;;;;4973209;28;20033;-80
2021/03/10 01:47:57;;;;;;;36.30;25.10;;;77.50;2227.20;;;;;;4972392;28;20099;-81
2021/03/10 01:50:25;;;;;;;58.60;28.85;;;77.30;2227.20;;;;;;4990176;28;20038;-80
2021/03/10 01:52:55;;;;;;;66.95;34.60;;;77.40;2227.20;;;;;;4968337;29;20027;-81
2021/03/10 01:55:22;;;;;;;59.22;36.20;;;77.40;2227.20;;;;;;4953869;29;20155;-80
2021/03/10 01:57:48;;;;;;;43.47;27.67;;;77.40;2227.20;;;;;;4953266;29;20030;-80
2021/03/10 02:00:15;;;;;;;48.75;32.85;;;77.40;2227.20;;;;;;4953623;29;20054;-80
2021/03/10 02:02:42;;;;;;;57.60;35.38;;;77.50;2227.20;;;;;;4953413;29;20035;-80
2021/03/10 02:05:10;;;;;;;47.22;30.48;;;77.20;2227.20;;;;;;4953266;28;20051;-80
2021/03/10 02:08:02;;;;;;;47.20;29.02;;;77.30;2227.20;;;;;;4970793;28;20034;-80
2021/03/10 02:10:46;;;;;;;52.17;32.33;;;77.30;2227.20;;;;;;4953269;29;20114;-80
2021/03/10 02:13:16;;;;;;;67.35;50.40;;;77.30;2227.20;;;;;;4968304;29;20023;-80
2021/03/10 02:16:09;;;;;;;55.92;40.15;;;77.40;2227.20;;;;;;4953651;29;20027;-79
2021/03/10 02:18:43;;;;;;;42.92;28.52;;;77.50;2227.20;;;;;;4970465;29;20125;-80
2021/03/10 02:21:22;;;;;;;47.28;31.15;;;77.60;2227.20;;;;;;4972445;28;20074;-81
2021/03/10 02:24:20;;;;;;;48.10;29.58;;;77.50;2227.20;;;;;;4971289;28;20027;-80
2021/03/10 02:27:01;;;;;;;40.90;26.02;;;77.30;2227.20;;;;;;4974118;28;20051;-80
2021/03/10 02:29:28;;;;;;;43.17;28.75;;;77.30;2227.20;;;;;;4990295;28;20181;-80
2021/03/10 02:31:56;;;;;;;44.53;31.63;;;77.30;2227.20;;;;;;4991873;28;20093;-81
2021/03/10 02:34:22;;;;;;;54.83;32.45;;;77.40;2227.20;;;;;;4991806;28;20383;-80
2021/03/10 02:36:50;;;;;;;68.85;39.05;;;77.40;2227.20;;;;;;4992444;28;20464;-80
2021/03/10 02:39:22;;;;;;;65.32;36.75;;;77.30;2227.20;;;;;;4992179;28;20026;-80
2021/03/10 02:41:49;;;;;;;52.13;32.13;;;77.30;2227.20;;;;;;4992598;28;20037;-80
2021/03/10 02:44:16;;;;;;;43.45;27.83;;;128.30;2252.80;;;;;;5008476;28;20027;-81
2021/03/10 02:46:43;;;;;;;39.20;28.45;;;77.40;2227.20;;;;;;4992158;28;20030;-80
2021/03/10 02:49:10;;;;;;;35.33;22.92;;;77.30;2227.20;;;;;;4991218;28;20023;-81
2021/03/10 02:51:37;;;;;;;31.95;20.38;;;102.60;2227.20;;;;;;4991940;28;20030;-80
2021/03/10 02:54:04;;;;;;;42.67;27.40;;;77.30;2227.20;;;;;;4992612;28;20053;-80
2021/03/10 02:56:30;;;;;;;56.25;38.83;;;77.30;2227.20;;;;;;4992279;28;20456;-80
2021/03/10 02:58:57;;;;;;;32.58;22.27;;;77.30;2227.20;;;;;;4992139;28;20113;-81
2021/03/10 03:01:23;;;;;;;28.83;20.42;;;103.20;2227.20;;;;;;4991262;28;20034;-80
2021/03/10 03:03:49;;;;;;;28.23;17.73;;;77.30;2227.20;;;;;;4991034;28;20038;-80
2021/03/10 03:06:15;;;;;;;25.42;16.02;;;77.30;2227.20;;;;;;4990950;28;20026;-80
2021/03/10 03:08:41;;;;;;;33.45;19.83;;;77.30;2227.20;;;;;;4990393;28;20049;-80
2021/03/10 03:11:08;;;;;;;35.75;21.27;;;77.40;2227.20;;;;;;4991093;28;20046;-80
2021/03/10 03:13:34;;;;;;;43.28;16.92;;;77.40;2227.20;;;;;;4991376;28;20026;-80
2021/03/10 03:16:04;;;;;;;37.50;16.90;;;77.20;2227.20;;;;;;4991264;28;20034;-80
2021/03/10 03:18:30;;;;;;;26.88;10.90;;;77.30;2227.20;;;;;;4988747;28;20049;-80
2021/03/10 03:21:00;;;;;;;29.33;8.95;;;77.20;2227.20;;;;;;4989334;28;20026;-80
2021/03/10 03:23:27;;;;;;;14.95;6.20;;;77.20;2227.20;;;;;;4985468;28;20038;-80
2021/03/10 03:25:55;;;;;;;31.23;8.68;;;77.20;2227.20;;;;;;4970389;28;20242;-80
2021/03/10 03:28:25;;;;;;;13.70;5.53;;;52.10;2227.20;;;;;;4969349;28;20055;-80
2021/03/10 03:30:53;;;;;;;14.23;7.22;;;77.10;2227.20;;;;;;4970562;28;20035;-80
2021/03/10 03:33:28;;;;;;;6.57;4.10;;;77.10;2227.20;;;;;;4969074;28;20086;-80
2021/03/10 03:35:57;;;;;;;7.72;4.40;;;77.10;2227.20;;;;;;4970337;28;20093;-80
2021/03/10 03:38:25;;;;;;;14.52;6.07;;;77.00;2227.20;;;;;;4970234;28;20023;-80
2021/03/10 03:40:53;;;;;;;13.63;5.72;;;77.00;2227.20;;;;;;4969725;28;20034;-80
2021/03/10 03:43:20;;;;;;;11.15;5.97;;;77.10;2227.20;;;;;;4970445;28;20035;-80
2021/03/10 03:45:46;;;;;;;8.63;5.30;;;77.70;2227.20;;;;;;4969868;28;20143;-80
2021/03/10 03:48:12;;;;;;;10.65;5.85;;;77.00;2227.20;;;;;;4970689;28;20034;-81
2021/03/10 03:50:41;;;;;;;11.75;6.88;;;77.00;2227.20;;;;;;4970137;28;20055;-80
2021/03/10 03:53:08;;;;;;;10.40;5.85;;;76.90;2227.20;;;;;;4969935;28;20046;-80
2021/03/10 03:55:35;;;;;;;11.90;7.15;;;77.00;2227.20;;;;;;4970131;28;20062;-80
2021/03/10 03:58:01;;;;;;;11.70;5.45;;;77.00;2227.20;;;;;;4969781;28;20054;-80
2021/03/10 04:00:27;;;;;;;13.40;7.13;;;102.40;2227.20;;;;;;4968988;28;20039;-80
2021/03/10 04:02:53;;;;;;;11.80;5.95;;;76.90;2227.20;;;;;;4986995;28;20031;-80
2021/03/10 04:05:20;;;;;;;10.23;4.45;;;76.80;2227.20;;;;;;4985787;28;20027;-81
2021/03/10 04:07:55;;;;;;;6.65;3.63;;;76.90;2227.20;;;;;;4981029;28;20026;-80
2021/03/10 04:10:33;;;;;;;5.97;3.35;;;76.90;2227.20;;;;;;5004689;28;20031;-80
2021/03/10 04:13:00;;;;;;;7.38;3.10;;;76.90;2227.20;;;;;;4988643;28;20050;-81
2021/03/10 04:15:27;;;;;;;5.28;3.50;;;76.90;2227.20;;;;;;4989156;28;20029;-80
2021/03/10 04:17:53;;;;;;;3.65;2.63;;;76.80;2227.20;;;;;;4989900;28;20050;-81
2021/03/10 04:20:22;;;;;;;5.90;2.90;;;52.10;2227.20;;;;;;4982813;28;20472;-80
2021/03/10 04:22:49;;;;;;;7.05;3.85;;;76.80;2227.20;;;;;;4969651;28;20031;-79
2021/03/10 04:25:16;;;;;;;6.18;3.72;;;76.80;2227.20;;;;;;4966167;28;20043;-79
2021/03/10 04:27:42;;;;;;;6.18;3.25;;;76.80;2227.20;;;;;;4966250;28;20472;-78
2021/03/10 04:30:11;;;;;;;6.80;4.05;;;76.80;2227.20;;;;;;4966622;28;20043;-80
2021/03/10 04:32:37;;;;;;;6.32;3.70;;;52.10;2227.20;;;;;;4967086;28;20033;-79
2021/03/10 04:35:04;;;;;;;7.28;3.83;;;52.10;2227.20;;;;;;4966473;28;20057;-79
2021/03/10 04:37:30;;;;;;;7.68;4.70;;;52.10;2227.20;;;;;;4967513;28;20059;-80
2021/03/10 04:39:56;;;;;;;5.05;3.13;;;52.10;2227.20;;;;;;4967958;28;20082;-80
2021/03/10 04:42:22;;;;;;;8.52;5.07;;;51.90;2227.20;;;;;;4969830;28;20035;-80
2021/03/10 04:44:48;;;;;;;5.70;3.05;;;51.90;2227.20;;;;;;4969403;28;20034;-80
2021/03/10 04:47:13;;;;;;;8.38;4.32;;;51.90;2227.20;;;;;;4969956;28;20050;-80
2021/03/10 04:49:39;;;;;;;8.20;4.68;;;51.80;2227.20;;;;;;4970628;28;20027;-80
2021/03/10 04:52:07;;;;;;;15.50;7.82;;;51.80;2227.20;;;;;;4970987;28;20019;-80
2021/03/10 04:54:33;;;;;;;12.50;6.20;;;51.70;2227.20;;;;;;4972612;28;20023;-80
2021/03/10 04:57:00;;;;;;;7.15;3.60;;;51.80;2227.20;;;;;;4971473;28;20086;-80
2021/03/10 04:59:28;;;;;;;6.57;3.90;;;51.80;2227.20;;;;;;4972750;28;20095;-80
2021/03/10 05:01:54;;;;;;;6.40;3.83;;;51.90;2227.20;;;;;;4988136;28;20039;-81
2021/03/10 05:04:26;;;;;;;6.00;3.42;;;76.80;2227.20;;;;;;4972753;28;20038;-80
2021/03/10 05:07:09;;;;;;;8.07;4.93;;;51.80;2227.20;;;;;;4958028;28;20109;-80
2021/03/10 05:09:41;;;;;;;;;;;51.90;2227.20;;;;;;4989301;28;20039;-80
2021/03/10 05:12:10;;;;;;;18.27;8.90;;;51.90;2227.20;;;;;;4972960;28;19913;-80
2021/03/10 05:14:37;;;;;;;10.07;5.18;;;51.70;2227.20;;;;;;4955927;28;20027;-80
2021/03/10 05:17:03;;;;;;;8.38;4.38;;;51.80;2227.20;;;;;;4971775;28;20031;-80
2021/03/10 05:19:30;;;;;;;9.13;5.60;;;51.90;2227.20;;;;;;4971873;28;20034;-80
2021/03/10 05:21:57;;;;;;;13.88;9.35;;;51.90;2227.20;;;;;;4971553;28;20485;-80
2021/03/10 05:24:24;;;;;;;9.60;6.70;;;51.90;2227.20;;;;;;4969696;28;20042;-80
2021/03/10 05:26:50;;;;;;;8.32;6.57;;;51.80;2227.20;;;;;;4955440;28;20081;-80
2021/03/10 05:29:17;;;;;;;9.02;6.85;;;51.90;2227.20;;;;;;4971637;28;20023;-80
2021/03/10 05:31:43;;;;;;;12.85;8.88;;;51.90;2227.20;;;;;;4970996;28;20050;-80
2021/03/10 05:34:09;;;;;;;7.95;6.45;;;77.00;2227.20;;;;;;4971332;28;20453;-80
2021/03/10 05:36:37;;;;;;;8.75;5.50;;;52.00;2227.20;;;;;;4971474;28;20031;-80
2021/03/10 05:39:05;;;;;;;14.82;8.57;;;52.10;2227.20;;;;;;4970589;28;20027;-80
2021/03/10 05:41:32;;;;;;;18.10;9.90;;;52.00;2227.20;;;;;;4957217;28;20035;-80
2021/03/10 05:44:02;;;;;;;15.95;9.50;;;51.90;2227.20;;;;;;4974837;28;20030;-80
2021/03/10 05:46:33;;;;;;;10.60;7.13;;;51.90;2227.20;;;;;;4975604;28;20027;-80
2021/03/10 05:49:04;;;;;;;19.02;10.38;;;51.90;2227.20;;;;;;4975275;28;20396;-80
2021/03/10 05:51:36;;;;;;;9.48;5.97;;;51.90;2227.20;;;;;;4987123;28;20035;-80
2021/03/10 05:54:05;;;;;;;9.27;6.45;;;52.00;2227.20;;;;;;4976124;28;20054;-80
2021/03/10 05:56:36;;;;;;;10.40;5.78;;;52.10;2227.20;;;;;;4990792;28;20030;-81
2021/03/10 05:59:04;;;;;;;11.55;6.82;;;51.90;2227.20;;;;;;4973243;28;20074;-80
2021/03/10 06:01:34;;;;;;;13.95;8.65;;;51.70;2227.20;;;;;;4990162;28;20030;-80
2021/03/10 06:04:05;;;;;;;10.48;7.20;;;52.00;2227.20;;;;;;4990255;28;20492;-80
2021/03/10 06:06:41;;;;;;;12.38;7.47;;;52.00;2227.20;;;;;;4958684;28;20034;-81
2021/03/10 06:09:15;;;;;;;16.85;10.85;;;52.00;2227.20;;;;;;4972839;28;20027;-80
2021/03/10 06:12:16;;;;;;;19.38;12.43;;;52.10;2227.20;;;;;;4973322;28;20057;-81
2021/03/10 06:15:09;;;;;;;14.07;8.57;;;52.00;2227.20;;;;;;4991099;28;20027;-80
2021/03/10 06:17:55;;;;;;;11.45;8.02;;;52.00;2227.20;;;;;;4974634;28;20031;-80
2021/03/10 06:28:15;;;;;;;10.82;6.38;;;52.10;2227.20;;;;;;4994600;28;20087;-81
2021/03/10 06:31:03;;;;;;;8.55;5.57;;;52.00;2227.20;;;;;;4980632;28;20086;-80
2021/03/10 06:33:52;;;;;;;13.43;7.82;;;51.90;2227.20;;;;;;4992536;28;20031;-80
2021/03/10 06:36:32;;;;;;;14.07;10.27;;;52.00;2227.20;;;;;;4962839;28;20059;-80
2021/03/10 06:39:06;;;;;;;15.48;9.68;;;52.10;2227.20;;;;;;4972564;28;20034;-80
2021/03/10 06:41:53;;;;;;;20.67;12.98;;;76.80;2227.20;;;;;;4952164;29;20060;-80
2021/03/10 06:44:28;;;;;;;30.83;20.45;;;76.80;2227.20;;;;;;4934111;29;20039;-80
2021/03/10 06:46:58;;;;;;;25.90;17.73;;;76.90;2227.20;;;;;;4936724;29;20024;-80
2021/03/10 06:49:28;;;;;;;32.30;19.85;;;76.90;2227.20;;;;;;4952081;29;20040;-80
2021/03/10 06:52:12;;;;;;;39.85;24.48;;;76.90;2227.20;;;;;;4951719;29;20035;-80
2021/03/10 06:54:47;;;;;;;24.77;17.55;;;76.90;2227.20;;;;;;4937274;29;20079;-79
2021/03/10 06:57:44;;;;;;;31.40;19.48;;;76.90;2227.20;;;;;;4938005;29;20035;-80
2021/03/10 07:00:22;;;;;;;48.80;31.60;;;76.90;2227.20;;;;;;4952494;29;20111;-80
2021/03/10 07:02:48;;;;;;;28.55;20.73;;;77.00;2227.20;;;;;;4936331;29;20028;-80
2021/03/10 07:05:16;;;;;;;43.40;27.45;;;77.00;2227.20;;;;;;4951368;29;20043;-81
2021/03/10 07:07:57;;;;;;;102.47;52.83;;;77.00;2227.20;;;;;;4950995;29;20043;-80
2021/03/10 07:10:29;;;;;;;144.55;77.30;;;77.00;2227.20;;;;;;4951162;29;20028;-80
2021/03/10 07:12:59;;;;;;;101.53;56.92;;;52.00;2227.20;;;;;;4935507;29;20038;-81
2021/03/10 07:15:27;;;;;;;54.05;34.35;;;77.10;2227.20;;;;;;4950807;29;20116;-80
2021/03/10 07:17:54;;;;;;;38.83;23.55;;;77.10;2227.20;;;;;;4950917;29;20028;-80
2021/03/10 07:20:22;;;;;;;26.70;18.02;;;77.00;2227.20;;;;;;4951487;29;20051;-80
2021/03/10 07:23:01;;;;;;;23.17;16.95;;;77.10;2227.20;;;;;;4950481;29;20028;-80
2021/03/10 07:25:34;;;;;;;25.20;18.77;;;77.10;2227.20;;;;;;4949299;29;20053;-80
2021/03/10 07:28:24;;;;;;;30.83;23.60;;;77.10;2227.20;;;;;;4948811;29;20047;-80
2021/03/10 07:30:50;;;;;;;38.40;26.55;;;77.20;2227.20;;;;;;4953468;28;20039;-81
2021/03/10 07:33:22;;;;;;;70.00;45.67;;;77.10;2227.20;;;;;;4972850;28;20033;-80
2021/03/10 07:35:50;;;;;;;56.50;37.53;;;77.00;2227.20;;;;;;4972299;28;20026;-80
2021/03/10 07:38:17;;;;;;;45.33;34.15;;;77.00;2227.20;;;;;;4971340;28;20027;-80
2021/03/10 07:41:04;;;;;;;78.75;70.40;;;77.10;2227.20;;;;;;4971764;28;20030;-80
2021/03/10 07:43:47;;;;;;;46.83;41.67;;;77.00;2227.20;;;;;;4972057;28;20117;-80
2021/03/10 07:46:21;;;;;;;54.90;49.15;;;77.20;2227.20;;;;;;4970621;28;20023;-80
2021/03/10 07:48:48;;;;;;;71.28;56.58;;;77.20;2227.20;;;;;;4971725;28;20030;-80
2021/03/10 07:51:36;;;;;;;84.40;66.07;;;77.20;2227.20;;;;;;4970641;28;20149;-80
2021/03/10 07:54:14;;;;;;;81.43;57.30;;;77.20;2227.20;;;;;;4970885;28;20059;-80
2021/03/10 07:56:40;;;;;;;69.93;61.22;;;77.30;2227.20;;;;;;4970312;28;20089;-80
2021/03/10 07:59:08;;;;;;;59.10;43.50;;;77.30;2227.20;;;;;;4965379;28;20497;-79
2021/03/10 08:01:34;;;;;;;93.32;74.03;;;77.20;2227.20;;;;;;4964916;28;20041;-79
2021/03/10 08:04:15;;;;;;;137.40;103.63;;;77.20;2227.20;;;;;;4961822;28;20540;-78
2021/03/10 08:06:54;;;;;;;92.72;66.65;;;77.20;2227.20;;;;;;4966112;28;20030;-77
2021/03/10 08:09:23;;;;;;;127.32;103.57;;;77.10;2227.20;;;;;;4962450;28;20029;-78
2021/03/10 08:12:09;;;;;;;95.07;73.63;;;77.20;2227.20;;;;;;4962316;28;20034;-78
2021/03/10 08:14:44;;;;;;;311.55;277.17;;;77.20;2227.20;;;;;;4964062;28;20050;-78
2021/03/10 08:17:23;;;;;;;158.82;125.32;;;76.90;2227.20;;;;;;4962491;28;20030;-78
2021/03/10 08:19:54;;;;;;;160.27;120.38;;;77.00;2227.20;;;;;;4961703;28;20375;-78
2021/03/10 08:22:25;;;;;;;141.55;102.35;;;77.10;2227.20;;;;;;4959242;28;20062;-77
2021/03/10 08:24:59;;;;;;;152.65;109.03;;;77.20;2227.20;;;;;;4979080;28;20113;-77
2021/03/10 08:27:32;;;;;;;126.22;105.47;;;77.20;2227.20;;;;;;4959270;28;20066;-77
2021/03/10 08:29:58;;;;;;;162.68;143.27;;;77.40;2227.20;;;;;;4959122;28;20117;-78
2021/03/10 08:32:27;;;;;;;181.27;162.60;;;77.30;2227.20;;;;;;4958170;28;20042;-77
2021/03/10 08:34:59;;;;;;;174.30;155.25;;;77.40;2227.20;;;;;;4958277;28;20065;-78
2021/03/10 08:37:27;;;;;;;125.10;109.25;;;77.40;2227.20;;;;;;4957328;28;20126;-79
2021/03/10 08:39:54;;;;;;;131.00;111.45;;;77.50;2227.20;;;;;;4955254;28;20046;-77
2021/03/10 08:42:21;;;;;;;111.35;97.80;;;77.60;2227.20;;;;;;4950979;28;20034;-77
2021/03/10 08:44:49;;;;;;;99.78;79.80;;;77.60;2227.20;;;;;;4942416;29;20392;-79
2021/03/10 08:47:21;;;;;;;96.57;77.65;;;77.60;2227.20;;;;;;4942923;29;20035;-77
2021/03/10 08:49:55;;;;;;;86.93;67.70;;;77.60;2227.20;;;;;;4944615;28;20037;-77
2021/03/10 08:52:26;;;;;;;81.70;60.55;;;77.70;2227.20;;;;;;4979737;28;20027;-79
2021/03/10 08:55:00;;;;;;;58.65;44.08;;;77.70;2227.20;;;;;;4951515;29;20027;-78
2021/03/10 08:57:29;;;;;;;67.03;49.75;;;77.60;2227.20;;;;;;4951041;29;20118;-79
2021/03/10 08:59:59;;;;;;;58.70;41.80;;;77.70;2227.20;;;;;;4950082;29;20047;-79
2021/03/10 09:02:31;;;;;;;60.33;42.58;;;77.70;2227.20;;;;;;4953332;29;20043;-79
2021/03/10 09:05:45;;;;;;;42.97;29.70;;;77.70;2227.20;;;;;;4955708;29;20023;-80
2021/03/10 09:08:39;;;;;;;;;;;102.40;2227.20;;;;;;4955411;29;20039;-81
2021/03/10 09:11:09;;;;;;;50.80;41.75;;;77.70;2227.20;;;;;;4956633;29;19907;-80
2021/03/10 10:58:34;;;;;;;41.50;23.92;;;102.40;2227.20;;;;;;4997561;23;20051;-81
2021/03/10 11:09:12;;;;;;;20.05;13.02;;;102.40;2227.20;;;;;;4901988;29;20073;-81
2021/03/10 11:12:27;;;;;;;16.40;12.90;;;102.40;2227.20;;;;;;4900984;29;20112;-81
2021/03/10 11:16:25;;;;;;;23.98;14.70;;;102.50;2227.20;;;;;;4919877;29;20024;-80
2021/03/10 12:05:32;;;;;;;102.47;62.63;;;102.60;2227.20;;;;;;4936857;26;20054;-80
2021/03/10 12:08:51;;;;;;;121.80;77.75;;;102.80;2227.20;;;;;;4975318;28;20058;-81
2021/03/10 12:15:51;;;;;;;61.50;41.13;;;102.70;2227.20;;;;;;4978736;28;20075;-81
2021/03/10 12:22:49;;;;;;;;;;;102.80;2227.20;;;;;;4921849;29;20031;-81
2021/03/10 12:26:25;;;;;;;106.00;69.30;;;102.70;2227.20;;;;;;4902526;29;19895;-81
2021/03/10 12:59:09;;;;;;;52.17;39.03;;;102.60;2227.20;;;;;;4954825;29;20084;-81
2021/03/10 13:02:50;;;;;;;22.85;18.67;;;102.50;2227.20;;;;;;4899537;29;20124;-81
2021/03/10 13:06:20;;;;;;;49.58;35.85;;;102.40;2227.20;;;;;;4897203;29;20056;-81
2021/03/10 13:16:44;;;;;;;27.15;20.90;;;102.40;2227.20;;;;;;4860173;29;20076;-81
2021/03/10 13:30:18;;;;;;;34.65;28.77;;;77.70;2227.20;;;;;;4736339;30;20031;-81
2021/03/10 13:37:28;;;;;;;30.35;21.30;;;77.50;2227.20;;;;;;4709480;30;20072;-81
2021/03/10 13:44:29;;;;;;;29.85;21.25;;;77.60;2227.20;;;;;;4702396;30;20049;-81
2021/03/10 14:04:48;;;;;;;27.33;18.13;;;77.50;2227.20;;;;;;4702599;30;20103;-80
2021/03/10 14:07:14;;;;;;;24.75;18.58;;;77.50;2227.20;;;;;;4695563;30;20045;-79
2021/03/10 14:16:40;;;;;;;33.88;22.70;;;77.70;2227.20;;;;;;4798896;30;20049;-80
2021/03/10 14:19:07;;;;;;;44.30;31.38;;;77.70;2227.20;;;;;;4922291;29;20040;-80
2021/03/10 14:21:42;;;;;;;48.28;32.15;;;77.70;2227.20;;;;;;4932415;29;20036;-78
2021/03/10 14:24:08;;;;;;;33.45;25.20;;;102.40;2227.20;;;;;;4911517;29;20282;-79
2021/03/10 14:26:34;;;;;;;40.90;28.27;;;102.40;2227.20;;;;;;4909044;29;20188;-79
2021/03/10 14:29:00;;;;;;;59.78;37.92;;;102.40;2227.20;;;;;;4916912;29;20525;-79
2021/03/10 14:31:26;;;;;;;50.30;33.72;;;102.40;2227.20;;;;;;4920061;29;20035;-79
2021/03/10 14:33:52;;;;;;;38.47;27.50;;;77.70;2227.20;;;;;;4905570;29;20037;-78
2021/03/10 14:36:18;;;;;;;40.17;29.35;;;77.70;2227.20;;;;;;4905094;29;20031;-77
2021/03/10 14:38:43;;;;;;;46.00;41.22;;;102.40;2227.20;;;;;;4917654;29;20084;-78
2021/03/10 14:41:10;;;;;;;48.25;42.13;;;77.60;2227.20;;;;;;4926258;29;20099;-81
2021/03/10 14:44:18;;;;;;;63.80;45.35;;;77.50;2227.20;;;;;;4937431;29;20036;-80
2021/03/10 14:46:47;;;;;;;47.47;33.83;;;77.50;2227.20;;;;;;4954565;29;20477;-80
2021/03/10 14:49:22;;;;;;;54.33;39.00;;;77.50;2227.20;;;;;;4926629;29;20062;-81
2021/03/10 14:51:48;;;;;;;67.13;44.60;;;77.60;2227.20;;;;;;4939358;29;20030;-79
2021/03/10 14:54:16;;;;;;;55.17;36.75;;;77.60;2227.20;;;;;;4938383;29;20039;-79
2021/03/10 14:56:46;;;;;;;60.25;41.97;;;77.70;2227.20;;;;;;4936502;29;20059;-80
2021/03/10 14:59:21;;;;;;;69.63;44.15;;;77.60;2227.20;;;;;;4953053;29;20161;-80
2021/03/10 15:02:04;;;;;;;54.05;36.30;;;77.60;2227.20;;;;;;4951952;29;20043;-80
2021/03/10 15:04:31;;;;;;;28.90;20.20;;;77.60;2227.20;;;;;;4953078;29;20051;-80
2021/03/10 15:06:57;;;;;;;33.25;23.65;;;102.40;2227.20;;;;;;4910769;29;20051;-78
2021/03/10 15:09:23;;;;;;;30.55;25.10;;;77.40;2227.20;;;;;;4905932;29;20498;-78
2021/03/10 15:11:49;;;;;;;36.95;28.40;;;77.40;2227.20;;;;;;4917933;29;20071;-79
2021/03/10 15:14:15;;;;;;;35.40;28.65;;;77.30;2227.20;;;;;;4945469;29;20027;-79
2021/03/10 15:16:41;;;;;;;38.17;28.83;;;52.10;2227.20;;;;;;4946328;29;20063;-77
2021/03/10 15:19:08;;;;;;;33.63;24.08;;;77.40;2227.20;;;;;;4938758;29;20027;-77
2021/03/10 15:21:34;;;;;;;27.15;17.80;;;77.40;2227.20;;;;;;4957263;29;20032;-78
2021/03/10 15:24:00;;;;;;;37.03;25.38;;;77.40;2227.20;;;;;;4939278;29;20027;-77
2021/03/10 15:26:26;;;;;;;30.65;21.52;;;77.50;2227.20;;;;;;4940768;29;20035;-78
2021/03/10 15:28:52;;;;;;;61.78;41.42;;;77.40;2227.20;;;;;;4938916;29;20462;-77
2021/03/10 15:31:17;;;;;;;43.47;28.95;;;77.30;2227.20;;;;;;4943315;28;20031;-78
2021/03/10 15:33:43;;;;;;;34.13;24.92;;;77.40;2227.20;;;;;;4940439;29;20032;-77
2021/03/10 15:36:09;;;;;;;38.92;30.33;;;77.50;2227.20;;;;;;4938349;29;20117;-77
2021/03/10 15:38:35;;;;;;;31.30;24.50;;;77.50;2227.20;;;;;;4957172;29;20031;-77
2021/03/10 15:41:01;;;;;;;31.70;25.77;;;77.50;2227.20;;;;;;4940069;29;20079;-77
2021/03/10 15:43:27;;;;;;;42.50;29.33;;;77.40;2227.20;;;;;;4955142;28;20649;-77
2021/03/10 15:45:53;;;;;;;65.20;38.47;;;77.50;2227.20;;;;;;4939896;29;20042;-76
2021/03/10 15:48:18;;;;;;;62.47;38.05;;;77.50;2227.20;;;;;;4939635;29;20031;-76
2021/03/10 15:50:45;;;;;;;45.72;31.38;;;77.50;2227.20;;;;;;4956732;29;20031;-75
2021/03/10 15:53:11;;;;;;;32.28;25.67;;;77.50;2227.20;;;;;;4955851;28;20027;-77
2021/03/10 15:55:37;;;;;;;28.02;23.98;;;77.60;2227.20;;;;;;4942033;28;20023;-77
2021/03/10 15:58:04;;;;;;;34.78;26.52;;;77.60;2227.20;;;;;;4955875;29;20069;-76
2021/03/10 16:00:30;;;;;;;65.82;49.38;;;77.70;2227.20;;;;;;4958789;28;20061;-77
2021/03/10 16:02:56;;;;;;;54.30;38.97;;;102.40;2227.20;;;;;;4959408;29;20034;-77
2021/03/10 16:05:22;;;;;;;65.45;46.47;;;102.50;2227.20;;;;;;4939925;29;20051;-78
2021/03/10 16:07:47;;;;;;;58.10;43.38;;;77.70;2227.20;;;;;;4942925;29;20535;-78
2021/03/10 16:10:13;;;;;;;70.97;54.45;;;102.40;2227.20;;;;;;4942292;29;20484;-78
2021/03/10 16:12:40;;;;;;;48.05;38.38;;;102.40;2227.20;;;;;;4944412;29;20023;-79
2021/03/10 16:15:06;;;;;;;63.28;52.65;;;102.40;2227.20;;;;;;4963536;28;20034;-78
2021/03/10 16:17:32;;;;;;;85.20;67.50;;;77.20;2227.20;;;;;;4946672;29;20023;-78
2021/03/10 16:20:08;;;;;;;72.80;55.08;;;102.50;2227.20;;;;;;4948918;29;20035;-79
2021/03/10 16:23:18;;;;;;;60.38;44.97;;;102.50;2227.20;;;;;;4974110;29;20026;-82
2021/03/10 16:26:29;;;;;;;63.78;45.60;;;102.40;2227.20;;;;;;4937324;29;20008;-81
2021/03/10 16:33:17;;;;;;;41.03;30.77;;;77.70;2227.20;;;;;;4921677;29;20090;-82
2021/03/10 16:58:42;;;;;;;47.83;32.92;;;77.60;2227.20;;;;;;5461664;23;20043;-81
2021/03/10 17:04:49;;;;;;;32.03;24.92;;;77.50;2227.20;;;;;;4993360;28;20074;-82
2021/03/10 17:07:54;;;;;;;40.80;30.00;;;77.50;2227.20;;;;;;4998617;28;20026;-83
2021/03/10 17:10:50;;;;;;;35.30;26.67;;;77.50;2227.20;;;;;;4994170;28;20023;-81
2021/03/10 17:13:56;;;;;;;38.78;28.58;;;77.40;2227.20;;;;;;4976709;28;20035;-82
2021/03/10 17:17:11;;;;;;;38.88;29.17;;;77.30;2227.20;;;;;;4978849;28;20027;-82
2021/03/10 17:20:01;;;;;;;40.55;29.02;;;77.40;2227.20;;;;;;4993960;28;20036;-81
2021/03/10 17:22:28;;;;;;;35.72;25.55;;;77.30;2227.20;;;;;;4973835;28;20073;-79
2021/03/10 17:28:29;;;;;;;38.38;29.30;;;77.30;2227.20;;;;;;4994705;28;20041;-81